sensor_id;sensor_type;location;lat;lon;timestamp;P1;durP1;ratioP1;P2;durP2;ratioP2
56860;SDS011;42744;51.094;3.490;2024-03-22T00:02:02;34.80;;;20.03;;
56860;SDS011;42744;51.094;3.490;2024-03-22T00:04:28;30.57;;;19.50;;
56860;SDS011;42744;51.094;3.490;2024-03-22T00:06:54;32.90;;;19.40;;
56860;SDS011;42744;51.094;3.490;2024-03-22T00:09:20;33.47;;;19.60;;
56860;SDS011;42744;51.094;3.490;2024-03-22T00:11:46;31.13;;;19.67;;
56860;SDS011;42744;51.094;3.490;2024-03-22T00:14:12;34.13;;;19.93;;
56860;SDS011;42744;51.094;3.490;2024-03-22T00:16:38;30.73;;;18.10;;
56860;SDS011;42744;51.094;3.490;2024-03-22T00:19:04;28.30;;;17.67;;
56860;SDS011;42744;51.094;3.490;2024-03-22T00:21:31;27.83;;;17.33;;
56860;SDS011;42744;51.094;3.490;2024-03-22T00:23:57;29.20;;;17.63;;
56860;SDS011;42744;51.094;3.490;2024-03-22T00:26:23;29.83;;;18.13;;
56860;SDS011;42744;51.094;3.490;2024-03-22T00:28:49;28.77;;;16.63;;
56860;SDS011;42744;51.094;3.490;2024-03-22T00:31:15;31.90;;;16.37;;
56860;SDS011;42744;51.094;3.490;2024-03-22T00:33:42;31.03;;;17.37;;
56860;SDS011;42744;51.094;3.490;2024-03-22T00:36:08;27.33;;;16.67;;
56860;SDS011;42744;51.094;3.490;2024-03-22T00:38:34;26.87;;;16.20;;
56860;SDS011;42744;51.094;3.490;2024-03-22T00:41:00;27.73;;;15.63;;
56860;SDS011;42744;51.094;3.490;2024-03-22T00:43:26;28.60;;;16.13;;
56860;SDS011;42744;51.094;3.490;2024-03-22T00:45:52;28.87;;;16.00;;
56860;SDS011;42744;51.094;3.490;2024-03-22T00:48:18;30.40;;;16.57;;
56860;SDS011;42744;51.094;3.490;2024-03-22T00:50:44;26.67;;;15.43;;
56860;SDS011;42744;51.094;3.490;2024-03-22T00:53:10;25.33;;;15.40;;
56860;SDS011;42744;51.094;3.490;2024-03-22T00:55:37;27.30;;;15.53;;
56860;SDS011;42744;51.094;3.490;2024-03-22T00:58:03;27.10;;;15.70;;
56860;SDS011;42744;51.094;3.490;2024-03-22T01:00:29;25.67;;;14.63;;
56860;SDS011;42744;51.094;3.490;2024-03-22T01:02:55;25.23;;;14.30;;
56860;SDS011;42744;51.094;3.490;2024-03-22T01:05:21;22.60;;;13.53;;
56860;SDS011;42744;51.094;3.490;2024-03-22T01:07:47;22.60;;;14.13;;
56860;SDS011;42744;51.094;3.490;2024-03-22T01:10:13;20.23;;;12.60;;
56860;SDS011;42744;51.094;3.490;2024-03-22T01:12:39;19.83;;;12.87;;
56860;SDS011;42744;51.094;3.490;2024-03-22T01:15:06;19.50;;;12.60;;
56860;SDS011;42744;51.094;3.490;2024-03-22T01:17:33;22.27;;;12.73;;
56860;SDS011;42744;51.094;3.490;2024-03-22T01:19:59;18.47;;;11.90;;
56860;SDS011;42744;51.094;3.490;2024-03-22T01:22:25;16.87;;;11.37;;
56860;SDS011;42744;51.094;3.490;2024-03-22T01:24:52;20.63;;;12.60;;
56860;SDS011;42744;51.094;3.490;2024-03-22T01:27:18;23.60;;;13.33;;
56860;SDS011;42744;51.094;3.490;2024-03-22T01:29:45;20.67;;;12.43;;
56860;SDS011;42744;51.094;3.490;2024-03-22T01:32:12;21.20;;;13.60;;
56860;SDS011;42744;51.094;3.490;2024-03-22T01:34:38;23.13;;;14.20;;
56860;SDS011;42744;51.094;3.490;2024-03-22T01:37:05;22.23;;;13.47;;
56860;SDS011;42744;51.094;3.490;2024-03-22T01:39:31;25.83;;;14.93;;
56860;SDS011;42744;51.094;3.490;2024-03-22T01:41:57;23.20;;;14.50;;
56860;SDS011;42744;51.094;3.490;2024-03-22T01:44:27;19.00;;;13.20;;
56860;SDS011;42744;51.094;3.490;2024-03-22T01:46:54;20.90;;;13.73;;
56860;SDS011;42744;51.094;3.490;2024-03-22T01:49:20;19.93;;;12.70;;
56860;SDS011;42744;51.094;3.490;2024-03-22T01:51:46;19.90;;;13.17;;
56860;SDS011;42744;51.094;3.490;2024-03-22T01:54:13;20.20;;;13.27;;
56860;SDS011;42744;51.094;3.490;2024-03-22T01:56:42;20.67;;;13.13;;
56860;SDS011;42744;51.094;3.490;2024-03-22T01:59:08;19.07;;;12.97;;
56860;SDS011;42744;51.094;3.490;2024-03-22T02:01:35;22.33;;;14.00;;
56860;SDS011;42744;51.094;3.490;2024-03-22T02:04:02;21.77;;;14.20;;
56860;SDS011;42744;51.094;3.490;2024-03-22T02:06:28;23.13;;;13.73;;
56860;SDS011;42744;51.094;3.490;2024-03-22T02:08:54;19.53;;;12.43;;
56860;SDS011;42744;51.094;3.490;2024-03-22T02:11:20;21.73;;;12.83;;
56860;SDS011;42744;51.094;3.490;2024-03-22T02:13:46;21.37;;;13.20;;
56860;SDS011;42744;51.094;3.490;2024-03-22T02:16:12;22.73;;;14.03;;
56860;SDS011;42744;51.094;3.490;2024-03-22T02:18:38;21.70;;;12.93;;
56860;SDS011;42744;51.094;3.490;2024-03-22T02:21:04;23.37;;;13.47;;
56860;SDS011;42744;51.094;3.490;2024-03-22T02:23:34;20.53;;;12.77;;
56860;SDS011;42744;51.094;3.490;2024-03-22T02:26:01;21.03;;;13.13;;
56860;SDS011;42744;51.094;3.490;2024-03-22T02:28:28;20.63;;;12.87;;
56860;SDS011;42744;51.094;3.490;2024-03-22T02:30:54;22.03;;;12.77;;
56860;SDS011;42744;51.094;3.490;2024-03-22T02:33:20;20.77;;;12.93;;
56860;SDS011;42744;51.094;3.490;2024-03-22T02:35:46;23.00;;;13.97;;
56860;SDS011;42744;51.094;3.490;2024-03-22T02:38:13;20.70;;;12.57;;
56860;SDS011;42744;51.094;3.490;2024-03-22T02:40:39;24.07;;;13.37;;
56860;SDS011;42744;51.094;3.490;2024-03-22T02:43:05;21.73;;;13.60;;
56860;SDS011;42744;51.094;3.490;2024-03-22T02:45:31;19.43;;;13.10;;
56860;SDS011;42744;51.094;3.490;2024-03-22T02:47:57;21.57;;;13.17;;
56860;SDS011;42744;51.094;3.490;2024-03-22T02:50:23;22.20;;;13.93;;
56860;SDS011;42744;51.094;3.490;2024-03-22T02:52:49;19.87;;;12.87;;
56860;SDS011;42744;51.094;3.490;2024-03-22T02:55:16;23.00;;;14.07;;
56860;SDS011;42744;51.094;3.490;2024-03-22T02:57:42;20.83;;;13.30;;
56860;SDS011;42744;51.094;3.490;2024-03-22T03:00:08;21.33;;;13.73;;
56860;SDS011;42744;51.094;3.490;2024-03-22T03:02:35;24.03;;;13.33;;
56860;SDS011;42744;51.094;3.490;2024-03-22T03:05:01;24.27;;;14.67;;
56860;SDS011;42744;51.094;3.490;2024-03-22T03:07:27;22.33;;;13.33;;
56860;SDS011;42744;51.094;3.490;2024-03-22T03:09:53;20.40;;;13.47;;
56860;SDS011;42744;51.094;3.490;2024-03-22T03:12:19;27.07;;;14.10;;
56860;SDS011;42744;51.094;3.490;2024-03-22T03:14:45;23.63;;;14.03;;
56860;SDS011;42744;51.094;3.490;2024-03-22T03:17:19;24.27;;;15.40;;
56860;SDS011;42744;51.094;3.490;2024-03-22T03:19:45;21.37;;;13.63;;
56860;SDS011;42744;51.094;3.490;2024-03-22T03:22:10;22.33;;;13.33;;
56860;SDS011;42744;51.094;3.490;2024-03-22T03:24:37;24.83;;;14.60;;
56860;SDS011;42744;51.094;3.490;2024-03-22T03:27:02;21.67;;;14.37;;
56860;SDS011;42744;51.094;3.490;2024-03-22T03:29:28;23.63;;;15.00;;
56860;SDS011;42744;51.094;3.490;2024-03-22T03:31:54;22.77;;;14.80;;
56860;SDS011;42744;51.094;3.490;2024-03-22T03:34:20;24.20;;;14.87;;
56860;SDS011;42744;51.094;3.490;2024-03-22T03:36:47;21.73;;;14.00;;
56860;SDS011;42744;51.094;3.490;2024-03-22T03:39:13;23.63;;;14.13;;
56860;SDS011;42744;51.094;3.490;2024-03-22T03:41:39;21.70;;;13.33;;
56860;SDS011;42744;51.094;3.490;2024-03-22T03:44:05;23.90;;;14.20;;
56860;SDS011;42744;51.094;3.490;2024-03-22T03:46:31;24.10;;;15.03;;
56860;SDS011;42744;51.094;3.490;2024-03-22T03:48:57;21.03;;;13.37;;
56860;SDS011;42744;51.094;3.490;2024-03-22T03:51:23;22.60;;;13.97;;
56860;SDS011;42744;51.094;3.490;2024-03-22T03:53:49;19.83;;;13.63;;
56860;SDS011;42744;51.094;3.490;2024-03-22T03:56:15;20.03;;;12.80;;
56860;SDS011;42744;51.094;3.490;2024-03-22T03:58:41;22.90;;;12.90;;
56860;SDS011;42744;51.094;3.490;2024-03-22T04:01:08;18.30;;;13.10;;
56860;SDS011;42744;51.094;3.490;2024-03-22T04:03:34;21.57;;;13.10;;
56860;SDS011;42744;51.094;3.490;2024-03-22T04:06:00;24.07;;;14.07;;
56860;SDS011;42744;51.094;3.490;2024-03-22T04:08:29;18.53;;;12.93;;
56860;SDS011;42744;51.094;3.490;2024-03-22T04:10:56;22.17;;;13.13;;
56860;SDS011;42744;51.094;3.490;2024-03-22T04:13:26;18.83;;;12.83;;
56860;SDS011;42744;51.094;3.490;2024-03-22T04:15:53;21.07;;;13.77;;
56860;SDS011;42744;51.094;3.490;2024-03-22T04:18:20;18.97;;;12.13;;
56860;SDS011;42744;51.094;3.490;2024-03-22T04:20:58;19.57;;;12.23;;
56860;SDS011;42744;51.094;3.490;2024-03-22T04:23:25;17.60;;;11.90;;
56860;SDS011;42744;51.094;3.490;2024-03-22T04:25:53;19.97;;;12.10;;
56860;SDS011;42744;51.094;3.490;2024-03-22T04:28:24;16.50;;;11.33;;
56860;SDS011;42744;51.094;3.490;2024-03-22T04:31:07;17.27;;;10.90;;
56860;SDS011;42744;51.094;3.490;2024-03-22T04:33:37;14.73;;;9.67;;
56860;SDS011;42744;51.094;3.490;2024-03-22T04:36:03;16.30;;;10.77;;
56860;SDS011;42744;51.094;3.490;2024-03-22T04:38:30;16.47;;;9.93;;
56860;SDS011;42744;51.094;3.490;2024-03-22T04:40:56;14.57;;;9.30;;
56860;SDS011;42744;51.094;3.490;2024-03-22T04:43:23;14.77;;;9.17;;
56860;SDS011;42744;51.094;3.490;2024-03-22T04:45:49;15.33;;;8.83;;
56860;SDS011;42744;51.094;3.490;2024-03-22T04:48:17;13.73;;;8.33;;
56860;SDS011;42744;51.094;3.490;2024-03-22T04:50:50;10.23;;;7.27;;
56860;SDS011;42744;51.094;3.490;2024-03-22T04:53:17;14.27;;;7.53;;
56860;SDS011;42744;51.094;3.490;2024-03-22T04:55:44;11.73;;;7.73;;
56860;SDS011;42744;51.094;3.490;2024-03-22T04:58:14;11.83;;;7.40;;
56860;SDS011;42744;51.094;3.490;2024-03-22T05:00:41;11.50;;;7.57;;
56860;SDS011;42744;51.094;3.490;2024-03-22T05:03:07;14.20;;;7.70;;
56860;SDS011;42744;51.094;3.490;2024-03-22T05:05:33;12.53;;;7.73;;
56860;SDS011;42744;51.094;3.490;2024-03-22T05:08:00;14.50;;;8.40;;
56860;SDS011;42744;51.094;3.490;2024-03-22T05:10:27;12.23;;;8.07;;
56860;SDS011;42744;51.094;3.490;2024-03-22T05:12:56;12.77;;;8.13;;
56860;SDS011;42744;51.094;3.490;2024-03-22T05:15:23;16.77;;;8.70;;
56860;SDS011;42744;51.094;3.490;2024-03-22T05:17:53;15.30;;;8.87;;
56860;SDS011;42744;51.094;3.490;2024-03-22T05:20:19;16.33;;;9.20;;
56860;SDS011;42744;51.094;3.490;2024-03-22T05:22:46;15.50;;;9.03;;
56860;SDS011;42744;51.094;3.490;2024-03-22T05:25:13;14.70;;;8.77;;
56860;SDS011;42744;51.094;3.490;2024-03-22T05:27:40;14.13;;;8.80;;
56860;SDS011;42744;51.094;3.490;2024-03-22T05:30:10;12.87;;;7.93;;
56860;SDS011;42744;51.094;3.490;2024-03-22T05:32:37;14.23;;;8.20;;
56860;SDS011;42744;51.094;3.490;2024-03-22T05:35:04;12.77;;;8.00;;
56860;SDS011;42744;51.094;3.490;2024-03-22T05:37:30;13.77;;;8.27;;
56860;SDS011;42744;51.094;3.490;2024-03-22T05:39:56;15.23;;;8.80;;
56860;SDS011;42744;51.094;3.490;2024-03-22T05:42:22;15.43;;;9.03;;
56860;SDS011;42744;51.094;3.490;2024-03-22T05:44:48;14.93;;;8.83;;
56860;SDS011;42744;51.094;3.490;2024-03-22T05:47:14;16.80;;;9.87;;
56860;SDS011;42744;51.094;3.490;2024-03-22T05:49:40;15.43;;;9.00;;
56860;SDS011;42744;51.094;3.490;2024-03-22T05:52:06;14.13;;;8.37;;
56860;SDS011;42744;51.094;3.490;2024-03-22T05:54:32;14.80;;;8.43;;
56860;SDS011;42744;51.094;3.490;2024-03-22T05:56:58;17.20;;;8.67;;
56860;SDS011;42744;51.094;3.490;2024-03-22T05:59:25;13.97;;;8.63;;
56860;SDS011;42744;51.094;3.490;2024-03-22T06:01:53;15.50;;;9.00;;
56860;SDS011;42744;51.094;3.490;2024-03-22T06:04:19;15.70;;;8.83;;
56860;SDS011;42744;51.094;3.490;2024-03-22T06:06:45;12.57;;;8.13;;
56860;SDS011;42744;51.094;3.490;2024-03-22T06:09:10;12.70;;;8.33;;
56860;SDS011;42744;51.094;3.490;2024-03-22T06:11:38;15.20;;;7.43;;
56860;SDS011;42744;51.094;3.490;2024-03-22T06:14:09;12.70;;;7.83;;
56860;SDS011;42744;51.094;3.490;2024-03-22T06:16:35;14.80;;;8.47;;
56860;SDS011;42744;51.094;3.490;2024-03-22T06:19:01;14.80;;;9.07;;
56860;SDS011;42744;51.094;3.490;2024-03-22T06:21:28;14.70;;;8.90;;
56860;SDS011;42744;51.094;3.490;2024-03-22T06:23:54;16.37;;;8.37;;
56860;SDS011;42744;51.094;3.490;2024-03-22T06:26:20;14.60;;;8.50;;
56860;SDS011;42744;51.094;3.490;2024-03-22T06:28:46;14.87;;;8.67;;
56860;SDS011;42744;51.094;3.490;2024-03-22T06:31:12;14.47;;;9.20;;
56860;SDS011;42744;51.094;3.490;2024-03-22T06:33:38;16.20;;;8.03;;
56860;SDS011;42744;51.094;3.490;2024-03-22T06:36:04;15.23;;;8.77;;
56860;SDS011;42744;51.094;3.490;2024-03-22T06:38:30;14.93;;;9.00;;
56860;SDS011;42744;51.094;3.490;2024-03-22T06:40:56;11.83;;;8.10;;
56860;SDS011;42744;51.094;3.490;2024-03-22T06:43:24;13.00;;;8.33;;
56860;SDS011;42744;51.094;3.490;2024-03-22T06:45:50;11.17;;;8.10;;
56860;SDS011;42744;51.094;3.490;2024-03-22T06:48:16;15.03;;;8.57;;
56860;SDS011;42744;51.094;3.490;2024-03-22T06:50:42;15.93;;;8.87;;
56860;SDS011;42744;51.094;3.490;2024-03-22T06:53:08;12.23;;;7.80;;
56860;SDS011;42744;51.094;3.490;2024-03-22T06:55:37;13.13;;;8.03;;
56860;SDS011;42744;51.094;3.490;2024-03-22T06:58:03;12.73;;;8.27;;
56860;SDS011;42744;51.094;3.490;2024-03-22T07:00:29;12.37;;;8.30;;
56860;SDS011;42744;51.094;3.490;2024-03-22T07:02:55;11.23;;;7.33;;
56860;SDS011;42744;51.094;3.490;2024-03-22T07:05:22;17.03;;;7.83;;
56860;SDS011;42744;51.094;3.490;2024-03-22T07:07:48;9.00;;;7.20;;
56860;SDS011;42744;51.094;3.490;2024-03-22T07:10:16;14.17;;;8.33;;
56860;SDS011;42744;51.094;3.490;2024-03-22T07:12:42;12.87;;;7.17;;
56860;SDS011;42744;51.094;3.490;2024-03-22T07:15:08;13.03;;;7.17;;
56860;SDS011;42744;51.094;3.490;2024-03-22T07:17:34;11.33;;;7.17;;
56860;SDS011;42744;51.094;3.490;2024-03-22T07:20:00;14.60;;;7.90;;
56860;SDS011;42744;51.094;3.490;2024-03-22T07:22:27;17.13;;;8.67;;
56860;SDS011;42744;51.094;3.490;2024-03-22T07:24:53;12.43;;;8.10;;
56860;SDS011;42744;51.094;3.490;2024-03-22T07:27:20;11.93;;;7.73;;
56860;SDS011;42744;51.094;3.490;2024-03-22T07:29:46;11.33;;;7.30;;
56860;SDS011;42744;51.094;3.490;2024-03-22T07:32:12;10.73;;;7.50;;
56860;SDS011;42744;51.094;3.490;2024-03-22T07:34:38;14.40;;;8.23;;
56860;SDS011;42744;51.094;3.490;2024-03-22T07:37:04;14.40;;;8.47;;
56860;SDS011;42744;51.094;3.490;2024-03-22T07:39:30;14.00;;;8.70;;
56860;SDS011;42744;51.094;3.490;2024-03-22T07:41:56;14.27;;;8.63;;
56860;SDS011;42744;51.094;3.490;2024-03-22T07:44:22;15.57;;;8.63;;
56860;SDS011;42744;51.094;3.490;2024-03-22T07:46:50;15.93;;;8.57;;
56860;SDS011;42744;51.094;3.490;2024-03-22T07:49:16;16.70;;;8.80;;
56860;SDS011;42744;51.094;3.490;2024-03-22T07:51:42;13.97;;;8.30;;
56860;SDS011;42744;51.094;3.490;2024-03-22T07:54:08;16.30;;;9.23;;
56860;SDS011;42744;51.094;3.490;2024-03-22T07:56:34;13.50;;;9.03;;
56860;SDS011;42744;51.094;3.490;2024-03-22T07:59:00;15.40;;;8.77;;
56860;SDS011;42744;51.094;3.490;2024-03-22T08:01:26;14.97;;;8.67;;
56860;SDS011;42744;51.094;3.490;2024-03-22T08:03:52;17.60;;;9.57;;
56860;SDS011;42744;51.094;3.490;2024-03-22T08:06:18;16.70;;;9.33;;
56860;SDS011;42744;51.094;3.490;2024-03-22T08:08:44;15.47;;;9.30;;
56860;SDS011;42744;51.094;3.490;2024-03-22T08:11:10;17.37;;;8.60;;
56860;SDS011;42744;51.094;3.490;2024-03-22T08:13:36;18.83;;;8.97;;
56860;SDS011;42744;51.094;3.490;2024-03-22T08:16:03;18.83;;;9.63;;
56860;SDS011;42744;51.094;3.490;2024-03-22T08:18:29;18.03;;;9.27;;
56860;SDS011;42744;51.094;3.490;2024-03-22T08:20:55;16.87;;;8.60;;
56860;SDS011;42744;51.094;3.490;2024-03-22T08:23:21;14.33;;;9.73;;
56860;SDS011;42744;51.094;3.490;2024-03-22T08:25:48;15.27;;;8.30;;
56860;SDS011;42744;51.094;3.490;2024-03-22T08:28:14;16.93;;;8.53;;
56860;SDS011;42744;51.094;3.490;2024-03-22T08:30:41;15.50;;;8.63;;
56860;SDS011;42744;51.094;3.490;2024-03-22T08:33:08;17.70;;;8.73;;
56860;SDS011;42744;51.094;3.490;2024-03-22T08:35:37;16.10;;;8.07;;
56860;SDS011;42744;51.094;3.490;2024-03-22T08:38:03;13.07;;;7.40;;
56860;SDS011;42744;51.094;3.490;2024-03-22T08:40:31;14.53;;;7.83;;
56860;SDS011;42744;51.094;3.490;2024-03-22T08:42:56;15.00;;;8.47;;
56860;SDS011;42744;51.094;3.490;2024-03-22T08:45:22;17.37;;;9.27;;
56860;SDS011;42744;51.094;3.490;2024-03-22T08:47:49;16.20;;;7.40;;
56860;SDS011;42744;51.094;3.490;2024-03-22T08:50:15;14.03;;;6.53;;
56860;SDS011;42744;51.094;3.490;2024-03-22T08:52:41;14.77;;;7.10;;
56860;SDS011;42744;51.094;3.490;2024-03-22T08:55:07;16.20;;;7.33;;
56860;SDS011;42744;51.094;3.490;2024-03-22T08:57:33;12.23;;;6.73;;
56860;SDS011;42744;51.094;3.490;2024-03-22T08:59:59;13.80;;;7.23;;
56860;SDS011;42744;51.094;3.490;2024-03-22T09:02:25;12.30;;;6.43;;
56860;SDS011;42744;51.094;3.490;2024-03-22T09:04:52;10.43;;;6.80;;
56860;SDS011;42744;51.094;3.490;2024-03-22T09:07:18;11.37;;;6.70;;
56860;SDS011;42744;51.094;3.490;2024-03-22T09:09:45;12.23;;;6.70;;
56860;SDS011;42744;51.094;3.490;2024-03-22T09:12:11;10.57;;;6.13;;
56860;SDS011;42744;51.094;3.490;2024-03-22T09:14:37;16.77;;;6.33;;
56860;SDS011;42744;51.094;3.490;2024-03-22T09:17:03;12.20;;;6.30;;
56860;SDS011;42744;51.094;3.490;2024-03-22T09:19:29;12.30;;;5.37;;
56860;SDS011;42744;51.094;3.490;2024-03-22T09:21:55;12.37;;;6.63;;
56860;SDS011;42744;51.094;3.490;2024-03-22T09:24:21;12.77;;;5.77;;
56860;SDS011;42744;51.094;3.490;2024-03-22T09:26:47;11.43;;;5.70;;
56860;SDS011;42744;51.094;3.490;2024-03-22T09:29:13;9.17;;;5.30;;
56860;SDS011;42744;51.094;3.490;2024-03-22T09:31:39;11.80;;;5.97;;
56860;SDS011;42744;51.094;3.490;2024-03-22T09:34:05;14.10;;;5.33;;
56860;SDS011;42744;51.094;3.490;2024-03-22T09:36:30;12.60;;;5.90;;
56860;SDS011;42744;51.094;3.490;2024-03-22T09:39:01;10.73;;;4.83;;
56860;SDS011;42744;51.094;3.490;2024-03-22T09:41:27;9.90;;;4.70;;
56860;SDS011;42744;51.094;3.490;2024-03-22T09:43:57;11.33;;;4.83;;
56860;SDS011;42744;51.094;3.490;2024-03-22T09:46:25;10.10;;;4.63;;
56860;SDS011;42744;51.094;3.490;2024-03-22T09:48:52;11.60;;;4.57;;
56860;SDS011;42744;51.094;3.490;2024-03-22T09:51:19;11.73;;;4.63;;
56860;SDS011;42744;51.094;3.490;2024-03-22T09:53:49;12.30;;;4.90;;
56860;SDS011;42744;51.094;3.490;2024-03-22T09:56:19;10.30;;;4.73;;
56860;SDS011;42744;51.094;3.490;2024-03-22T09:58:46;9.07;;;4.27;;
56860;SDS011;42744;51.094;3.490;2024-03-22T10:01:12;9.13;;;4.43;;
56860;SDS011;42744;51.094;3.490;2024-03-22T10:03:39;9.90;;;4.60;;
56860;SDS011;42744;51.094;3.490;2024-03-22T10:06:05;10.50;;;4.20;;
56860;SDS011;42744;51.094;3.490;2024-03-22T10:08:31;11.57;;;4.27;;
56860;SDS011;42744;51.094;3.490;2024-03-22T10:10:57;11.63;;;4.30;;
56860;SDS011;42744;51.094;3.490;2024-03-22T10:13:28;10.30;;;3.97;;
56860;SDS011;42744;51.094;3.490;2024-03-22T10:15:54;16.30;;;4.63;;
56860;SDS011;42744;51.094;3.490;2024-03-22T10:18:22;9.83;;;3.70;;
56860;SDS011;42744;51.094;3.490;2024-03-22T10:20:58;10.70;;;4.03;;
56860;SDS011;42744;51.094;3.490;2024-03-22T10:23:28;8.97;;;3.77;;
56860;SDS011;42744;51.094;3.490;2024-03-22T10:26:01;12.03;;;4.23;;
56860;SDS011;42744;51.094;3.490;2024-03-22T10:28:27;11.53;;;4.73;;
56860;SDS011;42744;51.094;3.490;2024-03-22T10:30:53;11.47;;;4.20;;
56860;SDS011;42744;51.094;3.490;2024-03-22T10:33:20;7.80;;;4.47;;
56860;SDS011;42744;51.094;3.490;2024-03-22T10:35:51;10.07;;;4.40;;
56860;SDS011;42744;51.094;3.490;2024-03-22T10:38:18;10.67;;;4.43;;
56860;SDS011;42744;51.094;3.490;2024-03-22T10:40:45;9.17;;;4.10;;
56860;SDS011;42744;51.094;3.490;2024-03-22T10:43:15;11.33;;;4.40;;
56860;SDS011;42744;51.094;3.490;2024-03-22T10:45:42;10.37;;;4.70;;
56860;SDS011;42744;51.094;3.490;2024-03-22T10:48:11;10.43;;;4.93;;
56860;SDS011;42744;51.094;3.490;2024-03-22T10:50:40;10.53;;;5.00;;
56860;SDS011;42744;51.094;3.490;2024-03-22T10:53:18;6.90;;;4.40;;
56860;SDS011;42744;51.094;3.490;2024-03-22T10:55:49;10.40;;;4.50;;
56860;SDS011;42744;51.094;3.490;2024-03-22T10:58:17;16.77;;;5.20;;
56860;SDS011;42744;51.094;3.490;2024-03-22T11:00:43;11.90;;;5.07;;
56860;SDS011;42744;51.094;3.490;2024-03-22T11:03:10;9.63;;;5.30;;
56860;SDS011;42744;51.094;3.490;2024-03-22T11:05:49;13.07;;;5.97;;
56860;SDS011;42744;51.094;3.490;2024-03-22T11:08:25;11.33;;;5.57;;
56860;SDS011;42744;51.094;3.490;2024-03-22T11:10:52;12.17;;;5.80;;
56860;SDS011;42744;51.094;3.490;2024-03-22T11:13:23;11.97;;;5.87;;
56860;SDS011;42744;51.094;3.490;2024-03-22T11:15:49;9.30;;;6.43;;
56860;SDS011;42744;51.094;3.490;2024-03-22T11:18:16;16.57;;;6.00;;
56860;SDS011;42744;51.094;3.490;2024-03-22T11:20:43;14.90;;;6.50;;
56860;SDS011;42744;51.094;3.490;2024-03-22T11:23:12;17.00;;;7.40;;
56860;SDS011;42744;51.094;3.490;2024-03-22T11:25:39;16.00;;;6.77;;
56860;SDS011;42744;51.094;3.490;2024-03-22T11:28:05;18.63;;;6.40;;
56860;SDS011;42744;51.094;3.490;2024-03-22T11:30:34;16.07;;;7.07;;
56860;SDS011;42744;51.094;3.490;2024-03-22T11:33:01;15.03;;;7.07;;
56860;SDS011;42744;51.094;3.490;2024-03-22T11:35:27;15.67;;;7.63;;
56860;SDS011;42744;51.094;3.490;2024-03-22T11:37:53;19.63;;;8.80;;
56860;SDS011;42744;51.094;3.490;2024-03-22T11:40:20;11.53;;;7.63;;
56860;SDS011;42744;51.094;3.490;2024-03-22T11:42:47;16.60;;;8.87;;
56860;SDS011;42744;51.094;3.490;2024-03-22T11:45:17;16.23;;;8.13;;
56860;SDS011;42744;51.094;3.490;2024-03-22T11:47:45;15.97;;;8.20;;
56860;SDS011;42744;51.094;3.490;2024-03-22T11:50:12;13.20;;;8.27;;
56860;SDS011;42744;51.094;3.490;2024-03-22T11:52:42;15.13;;;8.13;;
56860;SDS011;42744;51.094;3.490;2024-03-22T11:55:10;17.53;;;9.40;;
56860;SDS011;42744;51.094;3.490;2024-03-22T11:57:36;13.53;;;8.40;;
56860;SDS011;42744;51.094;3.490;2024-03-22T12:00:03;17.63;;;9.00;;
56860;SDS011;42744;51.094;3.490;2024-03-22T12:02:37;13.27;;;9.20;;
56860;SDS011;42744;51.094;3.490;2024-03-22T12:05:04;14.60;;;9.70;;
56860;SDS011;42744;51.094;3.490;2024-03-22T12:07:30;16.43;;;9.73;;
56860;SDS011;42744;51.094;3.490;2024-03-22T12:09:58;15.27;;;8.63;;
56860;SDS011;42744;51.094;3.490;2024-03-22T12:12:24;15.50;;;9.13;;
56860;SDS011;42744;51.094;3.490;2024-03-22T12:14:50;16.87;;;10.10;;
56860;SDS011;42744;51.094;3.490;2024-03-22T12:17:16;16.57;;;9.50;;
56860;SDS011;42744;51.094;3.490;2024-03-22T12:19:43;17.43;;;10.10;;
56860;SDS011;42744;51.094;3.490;2024-03-22T12:22:09;13.33;;;9.10;;
56860;SDS011;42744;51.094;3.490;2024-03-22T12:24:36;14.10;;;8.67;;
56860;SDS011;42744;51.094;3.490;2024-03-22T12:27:02;14.03;;;9.67;;
56860;SDS011;42744;51.094;3.490;2024-03-22T12:29:28;16.93;;;10.10;;
56860;SDS011;42744;51.094;3.490;2024-03-22T12:31:54;16.57;;;9.10;;
56860;SDS011;42744;51.094;3.490;2024-03-22T12:34:20;17.23;;;10.23;;
56860;SDS011;42744;51.094;3.490;2024-03-22T12:36:46;15.97;;;9.63;;
56860;SDS011;42744;51.094;3.490;2024-03-22T12:39:12;15.57;;;8.83;;
56860;SDS011;42744;51.094;3.490;2024-03-22T12:41:38;12.17;;;9.20;;
56860;SDS011;42744;51.094;3.490;2024-03-22T12:44:04;14.13;;;8.80;;
56860;SDS011;42744;51.094;3.490;2024-03-22T12:46:30;14.37;;;8.00;;
56860;SDS011;42744;51.094;3.490;2024-03-22T12:48:56;10.57;;;6.67;;
56860;SDS011;42744;51.094;3.490;2024-03-22T12:51:22;11.07;;;7.30;;
56860;SDS011;42744;51.094;3.490;2024-03-22T12:53:49;10.67;;;7.33;;
56860;SDS011;42744;51.094;3.490;2024-03-22T12:56:15;9.53;;;7.77;;
56860;SDS011;42744;51.094;3.490;2024-03-22T12:58:41;17.17;;;7.87;;
56860;SDS011;42744;51.094;3.490;2024-03-22T13:01:07;10.83;;;7.17;;
56860;SDS011;42744;51.094;3.490;2024-03-22T13:03:34;11.57;;;8.50;;
56860;SDS011;42744;51.094;3.490;2024-03-22T13:06:00;9.53;;;7.63;;
56860;SDS011;42744;51.094;3.490;2024-03-22T13:08:25;11.13;;;8.13;;
56860;SDS011;42744;51.094;3.490;2024-03-22T13:10:52;11.73;;;8.13;;
56860;SDS011;42744;51.094;3.490;2024-03-22T13:13:18;17.60;;;9.77;;
56860;SDS011;42744;51.094;3.490;2024-03-22T13:15:44;11.50;;;8.50;;
56860;SDS011;42744;51.094;3.490;2024-03-22T13:18:12;10.80;;;6.97;;
56860;SDS011;42744;51.094;3.490;2024-03-22T13:20:39;12.17;;;9.00;;
56860;SDS011;42744;51.094;3.490;2024-03-22T13:23:04;12.63;;;10.13;;
56860;SDS011;42744;51.094;3.490;2024-03-22T13:25:31;9.97;;;8.73;;
56860;SDS011;42744;51.094;3.490;2024-03-22T13:27:57;10.37;;;7.87;;
56860;SDS011;42744;51.094;3.490;2024-03-22T13:30:23;10.47;;;7.60;;
56860;SDS011;42744;51.094;3.490;2024-03-22T13:32:49;10.90;;;7.77;;
56860;SDS011;42744;51.094;3.490;2024-03-22T13:35:15;10.77;;;6.70;;
56860;SDS011;42744;51.094;3.490;2024-03-22T13:37:41;9.93;;;7.87;;
56860;SDS011;42744;51.094;3.490;2024-03-22T13:40:07;8.40;;;6.33;;
56860;SDS011;42744;51.094;3.490;2024-03-22T13:42:34;10.77;;;6.57;;
56860;SDS011;42744;51.094;3.490;2024-03-22T13:45:00;9.67;;;6.70;;
56860;SDS011;42744;51.094;3.490;2024-03-22T13:47:26;11.83;;;7.27;;
56860;SDS011;42744;51.094;3.490;2024-03-22T13:49:55;12.93;;;8.40;;
56860;SDS011;42744;51.094;3.490;2024-03-22T13:52:21;9.93;;;7.00;;
56860;SDS011;42744;51.094;3.490;2024-03-22T13:54:47;10.57;;;7.33;;
56860;SDS011;42744;51.094;3.490;2024-03-22T13:57:13;9.37;;;6.77;;
56860;SDS011;42744;51.094;3.490;2024-03-22T13:59:39;10.13;;;7.37;;
56860;SDS011;42744;51.094;3.490;2024-03-22T14:02:05;10.20;;;7.37;;
56860;SDS011;42744;51.094;3.490;2024-03-22T14:04:34;9.53;;;7.30;;
56860;SDS011;42744;51.094;3.490;2024-03-22T14:07:00;12.00;;;7.83;;
56860;SDS011;42744;51.094;3.490;2024-03-22T14:09:33;9.77;;;7.43;;
56860;SDS011;42744;51.094;3.490;2024-03-22T14:11:59;11.70;;;7.30;;
56860;SDS011;42744;51.094;3.490;2024-03-22T14:14:26;10.70;;;7.13;;
56860;SDS011;42744;51.094;3.490;2024-03-22T14:16:52;10.73;;;6.87;;
56860;SDS011;42744;51.094;3.490;2024-03-22T14:19:18;8.90;;;6.70;;
56860;SDS011;42744;51.094;3.490;2024-03-22T14:22:00;9.80;;;6.93;;
56860;SDS011;42744;51.094;3.490;2024-03-22T14:24:26;8.70;;;6.87;;
56860;SDS011;42744;51.094;3.490;2024-03-22T14:26:52;8.10;;;6.63;;
56860;SDS011;42744;51.094;3.490;2024-03-22T14:29:18;9.13;;;6.70;;